createdAt,value
2022-11-27T00:01:20.115Z,62.53
2022-11-27T00:03:46.991Z,51.00
2022-11-27T00:06:16.240Z,56.87
2022-11-27T00:08:43.753Z,57.40
2022-11-27T00:11:16.988Z,57.93
2022-11-27T00:13:43.866Z,60.67
2022-11-27T00:16:12.085Z,57.97
2022-11-27T00:18:38.504Z,53.27
2022-11-27T00:21:07.568Z,50.43
2022-11-27T00:23:34.662Z,52.53
2022-11-27T00:26:04.412Z,60.30
2022-11-27T00:28:31.211Z,62.13
2022-11-27T00:31:03.401Z,66.00
2022-11-27T00:33:29.908Z,65.10
2022-11-27T00:35:56.381Z,61.13
2022-11-27T00:38:22.521Z,59.33
2022-11-27T00:40:48.916Z,60.20
2022-11-27T00:43:15.050Z,59.10
2022-11-27T00:45:41.410Z,59.77
2022-11-27T00:48:07.507Z,62.87
2022-11-27T00:50:34.097Z,60.90
2022-11-27T00:53:00.402Z,62.27
2022-11-27T00:55:26.787Z,58.03
2022-11-27T00:57:52.920Z,59.47
2022-11-27T01:00:19.866Z,62.37
2022-11-27T01:02:46.033Z,55.70
2022-11-27T01:05:12.802Z,57.80
2022-11-27T01:07:39.022Z,55.77
2022-11-27T01:10:06.587Z,56.77
2022-11-27T01:12:32.836Z,54.77
2022-11-27T01:14:59.233Z,57.03
2022-11-27T01:17:25.373Z,59.23
2022-11-27T01:19:51.734Z,58.67
2022-11-27T01:22:17.872Z,52.73
2022-11-27T01:24:44.294Z,57.50
2022-11-27T01:27:10.689Z,53.40
2022-11-27T01:29:37.095Z,54.03
2022-11-27T01:32:03.243Z,55.83
2022-11-27T01:34:29.786Z,57.30
2022-11-27T01:36:55.873Z,58.33
2022-11-27T01:39:23.783Z,61.03
2022-11-27T01:41:50.046Z,60.30
2022-11-27T01:44:22.674Z,68.70
2022-11-27T01:46:53.069Z,63.07
2022-11-27T01:49:33.498Z,61.40
2022-11-27T01:52:18.108Z,69.53
2022-11-27T01:54:55.885Z,75.20
2022-11-27T01:57:26.549Z,60.67
2022-11-27T01:59:55.740Z,66.17
2022-11-27T02:02:21.903Z,73.63
2022-11-27T02:04:48.436Z,66.13
2022-11-27T02:07:14.953Z,67.60
2022-11-27T02:09:41.551Z,61.80
2022-11-27T02:12:15.401Z,63.83
2022-11-27T02:14:59.141Z,72.07
2022-11-27T02:17:42.727Z,66.20
2022-11-27T02:20:39.659Z,60.07
2022-11-27T02:23:39.918Z,58.43
2022-11-27T02:26:21.301Z,59.43
2022-11-27T02:28:56.560Z,63.30
2022-11-27T02:32:01.471Z,57.07
2022-11-27T02:34:52.886Z,63.00
2022-11-27T02:37:50.118Z,48.37
2022-11-27T02:40:31.367Z,52.87
2022-11-27T02:43:12.247Z,52.97
2022-11-27T02:45:42.572Z,54.37
2022-11-27T02:48:11.830Z,56.57
2022-11-27T02:50:41.064Z,54.97
2022-11-27T02:53:12.506Z,52.90
2022-11-27T02:55:39.800Z,54.47
2022-11-27T02:58:11.936Z,53.07
2022-11-27T03:00:41.376Z,62.97
2022-11-27T03:03:11.646Z,52.07
2022-11-27T03:05:41.641Z,56.07
2022-11-27T03:08:23.660Z,58.37
2022-11-27T03:10:49.762Z,57.60
2022-11-27T03:13:16.621Z,57.53
2022-11-27T03:16:09.597Z,55.07
2022-11-27T03:19:01.632Z,58.03
2022-11-27T03:21:38.758Z,62.13
2022-11-27T03:24:06.786Z,56.60
2022-11-27T03:26:33.214Z,51.67
2022-11-27T03:29:02.098Z,63.87
2022-11-27T03:31:30.452Z,56.80
2022-11-27T03:33:57.007Z,56.43
2022-11-27T03:36:23.270Z,57.47
2022-11-27T03:38:51.954Z,74.10
2022-11-27T03:41:23.287Z,60.23
2022-11-27T03:44:07.773Z,61.03
2022-11-27T03:46:55.916Z,55.93
2022-11-27T03:49:39.787Z,59.00
2022-11-27T03:52:28.116Z,58.07
2022-11-27T03:55:05.900Z,54.57
2022-11-27T03:57:51.783Z,61.40
2022-11-27T04:00:18.702Z,68.97
2022-11-27T04:02:51.220Z,64.67
2022-11-27T04:05:18.597Z,64.33
2022-11-27T04:07:44.680Z,63.07
2022-11-27T04:10:12.176Z,60.17
2022-11-27T04:12:38.547Z,63.30
2022-11-27T04:15:06.299Z,54.57
2022-11-27T04:17:32.574Z,55.10
2022-11-27T04:19:58.949Z,60.17
2022-11-27T04:22:25.073Z,65.17
2022-11-27T04:24:51.638Z,61.90
2022-11-27T04:27:17.828Z,54.40
2022-11-27T04:29:44.444Z,51.13
2022-11-27T04:32:10.537Z,60.53
2022-11-27T04:34:36.880Z,61.87
2022-11-27T04:37:03.022Z,65.47
2022-11-27T04:39:30.057Z,55.60
2022-11-27T04:41:56.199Z,54.40
2022-11-27T04:44:22.725Z,57.17
2022-11-27T04:46:49.562Z,58.37
2022-11-27T04:49:18.128Z,54.17
2022-11-27T04:51:45.108Z,52.10
2022-11-27T04:54:11.954Z,54.83
2022-11-27T04:56:38.664Z,50.63
2022-11-27T04:59:05.347Z,54.23
2022-11-27T05:01:31.934Z,53.83
2022-11-27T05:03:58.535Z,57.87
2022-11-27T05:06:24.828Z,58.17
2022-11-27T05:08:58.929Z,58.67
2022-11-27T05:11:26.134Z,52.87
2022-11-27T05:14:12.584Z,45.90
2022-11-27T05:16:39.165Z,53.00
2022-11-27T05:19:05.680Z,62.27
2022-11-27T05:21:32.913Z,76.43
2022-11-27T05:23:59.349Z,79.20
2022-11-27T05:26:25.583Z,62.07
2022-11-27T05:28:52.077Z,66.50
2022-11-27T05:31:18.370Z,68.90
2022-11-27T05:33:44.821Z,73.87
2022-11-27T05:36:10.998Z,61.43
2022-11-27T05:38:37.637Z,52.10
2022-11-27T05:41:04.143Z,53.47
2022-11-27T05:43:30.694Z,46.10
2022-11-27T05:45:57.058Z,50.57
2022-11-27T05:48:23.519Z,46.23
2022-11-27T05:50:49.691Z,41.43
2022-11-27T05:53:16.369Z,44.73
2022-11-27T05:55:42.784Z,43.37
2022-11-27T05:58:09.404Z,41.00
2022-11-27T06:00:35.899Z,40.90
2022-11-27T06:03:02.718Z,41.73
2022-11-27T06:05:29.338Z,43.80
2022-11-27T06:07:56.132Z,44.33
2022-11-27T06:10:22.467Z,45.40
2022-11-27T06:12:48.963Z,41.93
2022-11-27T06:15:15.213Z,41.90
2022-11-27T06:17:41.553Z,37.20
2022-11-27T06:20:07.985Z,52.87
2022-11-27T06:22:34.306Z,57.27
2022-11-27T06:25:00.485Z,58.73
2022-11-27T06:27:32.884Z,74.03
2022-11-27T06:29:59.012Z,66.97
2022-11-27T06:32:25.507Z,54.90
2022-11-27T06:34:52.799Z,46.03
2022-11-27T06:37:19.258Z,41.77
2022-11-27T06:39:47.571Z,38.57
2022-11-27T06:42:14.272Z,38.77
2022-11-27T06:44:43.422Z,48.53
2022-11-27T06:47:10.155Z,46.83
2022-11-27T06:49:36.376Z,42.73
2022-11-27T06:52:02.917Z,35.17
2022-11-27T06:54:29.067Z,33.93
2022-11-27T06:56:55.958Z,35.93
2022-11-27T06:59:22.233Z,38.73
2022-11-27T07:01:50.176Z,40.57
2022-11-27T07:04:16.473Z,40.53
2022-11-27T07:06:43.186Z,36.00
2022-11-27T07:09:09.715Z,39.57
2022-11-27T07:11:37.802Z,37.10
2022-11-27T07:14:05.052Z,42.87
2022-11-27T07:16:34.319Z,36.20
2022-11-27T07:19:05.254Z,36.97
2022-11-27T07:21:32.877Z,34.23
2022-11-27T07:24:00.660Z,34.00
2022-11-27T07:26:29.277Z,37.03
2022-11-27T07:28:56.482Z,36.30
2022-11-27T07:31:27.511Z,36.93
2022-11-27T07:33:54.141Z,35.97
2022-11-27T07:36:23.308Z,38.20
2022-11-27T07:38:50.012Z,37.03
2022-11-27T07:41:18.019Z,37.17
2022-11-27T07:43:45.743Z,39.13
2022-11-27T07:46:18.665Z,36.90
2022-11-27T07:48:45.847Z,38.50
2022-11-27T07:51:15.515Z,39.27
2022-11-27T07:53:42.159Z,39.30
2022-11-27T07:56:11.598Z,39.57
2022-11-27T07:58:38.135Z,43.17
2022-11-27T08:01:10.601Z,43.20
2022-11-27T08:03:37.560Z,39.93
2022-11-27T08:06:05.193Z,35.50
2022-11-27T08:08:34.097Z,37.93
2022-11-27T08:11:00.729Z,37.37
2022-11-27T08:13:28.527Z,39.97
2022-11-27T08:15:59.146Z,80.93
2022-11-27T08:18:25.316Z,57.67
2022-11-27T08:20:51.785Z,66.70
2022-11-27T08:23:17.916Z,70.30
2022-11-27T08:25:44.817Z,52.03
2022-11-27T08:28:10.968Z,47.20
2022-11-27T08:30:37.654Z,48.40
2022-11-27T08:33:03.876Z,34.70
2022-11-27T08:35:30.301Z,39.73
2022-11-27T08:37:56.842Z,37.07
2022-11-27T08:40:23.474Z,39.17
2022-11-27T08:42:49.563Z,41.20
2022-11-27T08:45:15.924Z,38.57
2022-11-27T08:47:42.792Z,36.87
2022-11-27T08:50:09.473Z,40.43
2022-11-27T08:52:35.887Z,35.80
2022-11-27T08:55:03.102Z,42.50
2022-11-27T08:57:29.251Z,36.50
2022-11-27T08:59:55.677Z,36.10
2022-11-27T09:02:21.865Z,36.27
2022-11-27T09:04:48.520Z,51.90
2022-11-27T09:07:16.058Z,37.93
2022-11-27T09:09:42.700Z,53.57
2022-11-27T09:12:09.050Z,89.50
2022-11-27T09:14:35.659Z,48.83
2022-11-27T09:17:01.940Z,43.63
2022-11-27T09:19:28.802Z,95.93
2022-11-27T09:21:55.576Z,45.03
2022-11-27T09:24:22.177Z,38.13
2022-11-27T09:26:48.423Z,36.93
2022-11-27T09:29:15.450Z,37.00
2022-11-27T09:31:41.956Z,31.57
2022-11-27T09:34:08.677Z,39.77
2022-11-27T09:36:35.177Z,50.53
2022-11-27T09:39:02.959Z,46.17
2022-11-27T09:41:54.165Z,41.67
2022-11-27T09:44:32.804Z,53.63
2022-11-27T09:47:06.007Z,30.80
2022-11-27T09:49:42.084Z,46.87
2022-11-27T09:52:21.871Z,41.77
2022-11-27T09:55:24.396Z,68.70
2022-11-27T09:58:16.835Z,67.23
2022-11-27T10:00:47.480Z,45.60
2022-11-27T10:03:24.990Z,58.33
2022-11-27T10:06:02.848Z,29.27
2022-11-27T10:08:47.259Z,57.23
2022-11-27T10:11:25.721Z,29.70
2022-11-27T10:14:23.317Z,174.10
2022-11-27T10:17:08.516Z,45.13
2022-11-27T10:19:43.953Z,40.87
2022-11-27T10:22:16.601Z,38.80
2022-11-27T10:24:58.381Z,35.23
2022-11-27T10:27:33.147Z,28.70
2022-11-27T10:30:04.200Z,26.27
2022-11-27T10:32:54.515Z,44.60
2022-11-27T10:35:23.489Z,36.60
2022-11-27T10:38:06.737Z,28.80
2022-11-27T10:40:45.651Z,24.10
2022-11-27T10:43:18.810Z,23.03
2022-11-27T10:45:51.004Z,52.77
2022-11-27T10:48:18.194Z,27.63
2022-11-27T10:50:47.921Z,20.97
2022-11-27T10:53:24.579Z,22.40
2022-11-27T10:56:13.151Z,23.33
2022-11-27T10:58:46.704Z,21.93
2022-11-27T11:01:18.254Z,18.07
2022-11-27T11:03:44.848Z,19.73
2022-11-27T11:06:24.543Z,42.57
2022-11-27T11:09:22.928Z,22.50
2022-11-27T11:11:51.584Z,24.23
2022-11-27T11:14:25.958Z,28.90
2022-11-27T11:16:54.061Z,33.60
2022-11-27T11:19:34.416Z,33.67
2022-11-27T11:22:14.556Z,28.30
2022-11-27T11:24:46.488Z,20.90
2022-11-27T11:27:26.481Z,28.50
2022-11-27T11:29:57.828Z,28.87
2022-11-27T11:32:27.701Z,29.97
2022-11-27T11:35:25.159Z,36.50
2022-11-27T11:37:52.654Z,28.80
2022-11-27T11:40:19.073Z,28.57
2022-11-27T11:42:58.111Z,28.63
2022-11-27T11:45:30.015Z,38.93
2022-11-27T11:48:01.877Z,23.70
2022-11-27T11:50:40.376Z,30.70
2022-11-27T11:53:31.287Z,28.70
2022-11-27T11:56:05.445Z,23.50
2022-11-27T11:58:40.472Z,22.47
2022-11-27T12:01:27.448Z,25.03
2022-11-27T12:04:19.042Z,52.97
2022-11-27T12:06:59.462Z,34.67
2022-11-27T12:09:40.532Z,54.00
2022-11-27T12:12:37.061Z,40.87
2022-11-27T12:15:21.482Z,34.87
2022-11-27T12:17:54.354Z,31.93
2022-11-27T12:20:30.245Z,53.77
2022-11-27T12:23:18.636Z,83.10
2022-11-27T12:25:53.065Z,31.83
2022-11-27T12:28:32.148Z,31.37
2022-11-27T12:31:02.185Z,30.50
2022-11-27T12:33:48.361Z,34.43
2022-11-27T12:37:00.174Z,39.33
2022-11-27T12:39:48.809Z,55.17
2022-11-27T12:42:32.396Z,49.93
2022-11-27T12:45:14.006Z,46.13
2022-11-27T12:47:43.021Z,58.77
2022-11-27T12:50:34.245Z,36.37
2022-11-27T12:53:24.980Z,30.07
2022-11-27T12:56:23.931Z,32.30
2022-11-27T12:59:01.469Z,31.20
2022-11-27T13:01:35.100Z,43.93
2022-11-27T13:04:30.581Z,66.50
2022-11-27T13:07:27.905Z,94.33
2022-11-27T13:10:16.551Z,70.57
2022-11-27T13:12:49.994Z,55.30
2022-11-27T13:15:43.697Z,42.40
2022-11-27T13:18:19.646Z,300.23
2022-11-27T13:20:52.156Z,392.57
2022-11-27T13:23:20.625Z,332.27
2022-11-27T13:25:53.552Z,78.20
2022-11-27T13:28:23.423Z,54.97
2022-11-27T13:30:52.949Z,44.33
2022-11-27T13:33:43.618Z,42.37
2022-11-27T13:36:26.438Z,44.43
2022-11-27T13:39:01.346Z,50.40
2022-11-27T13:41:39.699Z,56.63
2022-11-27T13:44:27.928Z,45.57
2022-11-27T13:47:05.587Z,53.27
2022-11-27T13:49:39.261Z,42.87
2022-11-27T13:52:19.533Z,40.87
2022-11-27T13:55:00.366Z,43.37
2022-11-27T13:57:28.509Z,39.00
2022-11-27T14:00:01.168Z,58.07
2022-11-27T14:02:46.149Z,93.47
2022-11-27T14:05:19.260Z,68.03
2022-11-27T14:07:51.696Z,118.27
2022-11-27T14:10:22.878Z,37.23
2022-11-27T14:12:57.462Z,39.43
2022-11-27T14:15:26.420Z,34.67
2022-11-27T14:18:13.987Z,34.70
2022-11-27T14:20:57.291Z,41.37
2022-11-27T14:23:31.518Z,41.00
2022-11-27T14:26:15.250Z,35.60
2022-11-27T14:28:44.707Z,35.40
2022-11-27T14:31:32.621Z,37.60
2022-11-27T14:34:20.637Z,32.90
2022-11-27T14:36:51.691Z,32.63
2022-11-27T14:39:32.472Z,33.80
2022-11-27T14:42:01.185Z,37.67
2022-11-27T14:44:27.987Z,29.50
2022-11-27T14:46:57.407Z,35.70
2022-11-27T14:49:26.465Z,55.07
2022-11-27T14:52:02.419Z,36.53
2022-11-27T14:54:32.401Z,30.83
2022-11-27T14:56:59.521Z,28.40
2022-11-27T14:59:26.246Z,44.33
2022-11-27T15:01:59.040Z,54.93
2022-11-27T15:04:27.215Z,38.43
2022-11-27T15:06:56.981Z,75.80
2022-11-27T15:09:33.828Z,82.30
2022-11-27T15:12:15.959Z,70.40
2022-11-27T15:14:54.422Z,63.77
2022-11-27T15:17:30.892Z,60.63
2022-11-27T15:20:00.639Z,56.87
2022-11-27T15:22:30.545Z,46.37
2022-11-27T15:25:07.603Z,44.87
2022-11-27T15:27:47.175Z,39.40
2022-11-27T15:30:18.191Z,33.77
2022-11-27T15:32:53.982Z,34.50
2022-11-27T15:35:34.773Z,45.30
2022-11-27T15:38:10.224Z,52.57
2022-11-27T15:40:39.333Z,51.93
2022-11-27T15:43:15.101Z,39.27
2022-11-27T15:45:42.995Z,36.73
2022-11-27T15:48:19.719Z,33.20
2022-11-27T15:50:52.035Z,28.60
2022-11-27T15:53:19.801Z,33.03
2022-11-27T15:55:47.136Z,31.07
2022-11-27T15:58:14.952Z,26.40
2022-11-27T16:00:41.354Z,27.43
2022-11-27T16:03:07.866Z,26.33
2022-11-27T16:05:34.080Z,25.97
2022-11-27T16:08:00.751Z,27.13
2022-11-27T16:10:27.009Z,26.90
2022-11-27T16:12:54.385Z,28.87
2022-11-27T16:15:23.088Z,23.83
2022-11-27T16:17:51.248Z,26.43
2022-11-27T16:20:17.596Z,26.13
2022-11-27T16:22:44.235Z,25.97
2022-11-27T16:25:12.695Z,23.97
2022-11-27T16:27:39.538Z,24.20
2022-11-27T16:30:06.504Z,25.37
2022-11-27T16:32:37.347Z,26.00
2022-11-27T16:35:03.970Z,25.63
2022-11-27T16:37:30.624Z,27.43
2022-11-27T16:39:57.384Z,25.30
2022-11-27T16:42:24.322Z,24.80
2022-11-27T16:44:50.909Z,25.10
2022-11-27T16:47:17.559Z,25.23
2022-11-27T16:49:47.904Z,27.53
2022-11-27T16:52:15.132Z,26.73
2022-11-27T16:54:41.756Z,28.63
2022-11-27T16:57:08.504Z,81.60
2022-11-27T16:59:37.530Z,76.03
2022-11-27T17:02:05.237Z,56.07
2022-11-27T17:04:31.497Z,35.37
2022-11-27T17:06:59.376Z,33.00
2022-11-27T17:09:28.747Z,31.00
2022-11-27T17:11:55.297Z,32.33
2022-11-27T17:14:26.190Z,32.27
2022-11-27T17:16:52.998Z,36.13
2022-11-27T17:19:23.387Z,31.23
2022-11-27T17:21:50.399Z,38.07
2022-11-27T17:24:17.649Z,31.17
2022-11-27T17:26:46.777Z,33.23
2022-11-27T17:29:15.465Z,29.83
2022-11-27T17:31:42.633Z,26.93
2022-11-27T17:34:13.217Z,30.57
2022-11-27T17:36:42.386Z,43.30
2022-11-27T17:39:11.474Z,44.03
2022-11-27T17:41:39.990Z,58.63
2022-11-27T17:44:07.427Z,42.97
2022-11-27T17:46:36.377Z,45.73
2022-11-27T17:49:06.539Z,34.37
2022-11-27T17:51:35.778Z,43.40
2022-11-27T17:54:04.751Z,41.73
2022-11-27T17:56:33.538Z,51.57
2022-11-27T17:59:00.684Z,48.80
2022-11-27T18:01:30.434Z,54.90
2022-11-27T18:04:00.400Z,58.67
2022-11-27T18:06:30.930Z,54.97
2022-11-27T18:08:59.280Z,47.53
2022-11-27T18:11:29.333Z,43.93
2022-11-27T18:13:58.893Z,231.87
2022-11-27T18:16:28.570Z,316.00
2022-11-27T18:18:56.425Z,177.50
2022-11-27T18:21:24.412Z,136.83
2022-11-27T18:27:06.657Z,61.80
2022-11-27T18:29:26.774Z,47.23
2022-11-27T18:31:54.810Z,43.63
2022-11-27T18:34:21.327Z,41.53
2022-11-27T18:36:49.380Z,40.93
2022-11-27T18:39:16.202Z,39.17
2022-11-27T18:41:43.007Z,35.90
2022-11-27T18:44:09.771Z,41.97
2022-11-27T18:46:37.953Z,44.20
2022-11-27T18:49:04.884Z,48.03
2022-11-27T18:51:34.414Z,50.80
2022-11-27T18:54:01.408Z,39.13
2022-11-27T18:56:30.510Z,37.40
2022-11-27T18:59:02.695Z,36.97
2022-11-27T19:01:35.414Z,38.60
2022-11-27T19:04:05.765Z,35.70
2022-11-27T19:06:35.195Z,37.40
2022-11-27T19:09:01.536Z,41.93
2022-11-27T19:11:30.163Z,42.83
2022-11-27T19:13:57.443Z,49.57
2022-11-27T19:16:28.288Z,39.57
2022-11-27T19:18:59.103Z,39.90
2022-11-27T19:21:27.716Z,45.70
2022-11-27T19:23:57.490Z,42.50
2022-11-27T19:26:30.118Z,43.17
2022-11-27T19:28:59.760Z,55.23
2022-11-27T19:31:26.954Z,50.40
2022-11-27T19:33:58.444Z,48.00
2022-11-27T19:36:25.387Z,44.33
2022-11-27T19:38:57.482Z,45.87
2022-11-27T19:41:24.708Z,46.43
2022-11-27T19:43:50.970Z,41.07
2022-11-27T19:46:21.072Z,43.97
2022-11-27T19:48:47.846Z,44.37
2022-11-27T19:51:15.051Z,55.27
2022-11-27T19:53:43.657Z,49.30
2022-11-27T19:56:12.112Z,55.10
2022-11-27T19:58:38.676Z,47.53
2022-11-27T20:01:17.659Z,55.70
2022-11-27T20:03:48.147Z,56.90
2022-11-27T20:06:17.763Z,51.00
2022-11-27T20:08:47.070Z,57.93
2022-11-27T20:11:17.026Z,40.80
2022-11-27T20:13:44.539Z,43.57
2022-11-27T20:16:17.662Z,43.37
2022-11-27T20:18:45.423Z,43.87
2022-11-27T20:21:21.452Z,41.80
2022-11-27T20:23:49.777Z,45.67
2022-11-27T20:26:19.742Z,49.23
2022-11-27T20:28:46.685Z,43.73
2022-11-27T20:31:17.647Z,41.00
2022-11-27T20:33:44.760Z,42.27
2022-11-27T20:36:14.060Z,43.07
2022-11-27T20:38:40.928Z,41.37
2022-11-27T20:41:09.895Z,44.30
2022-11-27T20:43:36.865Z,48.23
2022-11-27T20:46:04.417Z,42.63
2022-11-27T20:48:31.315Z,38.43
2022-11-27T20:51:07.863Z,44.07
2022-11-27T20:53:36.950Z,44.00
2022-11-27T20:56:06.489Z,39.77
2022-11-27T20:58:37.813Z,38.00
2022-11-27T21:01:18.750Z,42.23
2022-11-27T21:03:46.298Z,39.47
2022-11-27T21:06:17.440Z,37.43
2022-11-27T21:08:44.339Z,42.53
2022-11-27T21:11:30.585Z,40.53
2022-11-27T21:14:00.974Z,40.17
2022-11-27T21:16:31.086Z,42.40
2022-11-27T21:18:59.814Z,38.63
2022-11-27T21:21:29.520Z,38.67
2022-11-27T21:23:56.215Z,39.00
2022-11-27T21:26:23.328Z,37.93
2022-11-27T21:28:50.568Z,39.83
2022-11-27T21:31:19.709Z,36.97
2022-11-27T21:33:53.972Z,37.27
2022-11-27T21:36:23.866Z,34.07
2022-11-27T21:38:50.272Z,38.87
2022-11-27T21:41:18.043Z,36.93
2022-11-27T21:43:45.086Z,38.80
2022-11-27T21:46:19.544Z,34.77
2022-11-27T21:48:47.247Z,35.40
2022-11-27T21:51:14.678Z,36.03
2022-11-27T21:53:45.252Z,36.93
2022-11-27T21:56:14.734Z,42.63
2022-11-27T21:58:42.436Z,38.73
2022-11-27T22:01:17.256Z,36.87
2022-11-27T22:03:46.406Z,42.43
2022-11-27T22:06:15.391Z,36.57
2022-11-27T22:08:43.772Z,38.60
2022-11-27T22:11:17.273Z,39.90
2022-11-27T22:13:43.894Z,35.90
2022-11-27T22:16:12.596Z,36.43
2022-11-27T22:18:39.718Z,35.00
2022-11-27T22:21:09.891Z,35.00
2022-11-27T22:23:36.173Z,36.30
2022-11-27T22:26:04.749Z,38.83
2022-11-27T22:28:31.304Z,38.50
2022-11-27T22:30:58.097Z,40.13
2022-11-27T22:33:24.460Z,33.17
2022-11-27T22:35:50.917Z,38.63
2022-11-27T22:38:17.159Z,37.40
2022-11-27T22:40:44.020Z,33.57
2022-11-27T22:43:10.610Z,34.83
2022-11-27T22:45:38.977Z,35.83
2022-11-27T22:48:05.713Z,36.57
2022-11-27T22:50:33.345Z,32.60
2022-11-27T22:52:59.689Z,30.77
2022-11-27T22:55:27.642Z,34.40
2022-11-27T22:57:55.305Z,33.37
2022-11-27T23:00:22.357Z,33.00
2022-11-27T23:02:48.959Z,38.23
2022-11-27T23:05:15.806Z,32.37
2022-11-27T23:07:42.524Z,34.40
2022-11-27T23:10:09.778Z,32.80
2022-11-27T23:12:36.058Z,34.73
2022-11-27T23:15:02.806Z,31.83
2022-11-27T23:17:29.029Z,32.13
2022-11-27T23:19:55.560Z,34.87
2022-11-27T23:22:22.002Z,36.40
2022-11-27T23:24:48.475Z,32.70
2022-11-27T23:27:14.640Z,35.03
2022-11-27T23:29:41.113Z,34.63
2022-11-27T23:32:07.301Z,35.87
2022-11-27T23:34:33.724Z,31.83
2022-11-27T23:36:59.882Z,35.40
2022-11-27T23:39:26.370Z,33.20
2022-11-27T23:41:52.599Z,36.83
2022-11-27T23:44:20.116Z,35.87
2022-11-27T23:46:47.348Z,35.53
2022-11-27T23:49:13.925Z,35.13
2022-11-27T23:51:40.076Z,35.07
2022-11-27T23:54:08.943Z,33.00
2022-11-27T23:56:36.372Z,36.23
2022-11-27T23:59:02.799Z,33.83
